sensor_id;sensor_type;location;lat;lon;timestamp;pressure;altitude;pressure_sealevel;temperature;humidity
41078;BME280;26823;42.662;23.352;2023-08-31T00:00:22;94302.22;;;20.79;55.81
41078;BME280;26823;42.662;23.352;2023-08-31T00:02:47;94276.94;;;20.73;55.67
41078;BME280;26823;42.662;23.352;2023-08-31T00:05:13;94285.56;;;20.72;55.99
41078;BME280;26823;42.662;23.352;2023-08-31T00:07:38;94287.31;;;20.64;56.00
41078;BME280;26823;42.662;23.352;2023-08-31T00:10:04;94290.06;;;20.64;56.23
41078;BME280;26823;42.662;23.352;2023-08-31T00:12:35;94281.28;;;20.58;56.42
41078;BME280;26823;42.662;23.352;2023-08-31T00:15:01;94292.09;;;20.51;56.76
41078;BME280;26823;42.662;23.352;2023-08-31T00:17:26;94288.03;;;20.45;57.14
41078;BME280;26823;42.662;23.352;2023-08-31T00:19:52;94295.44;;;20.44;56.92
41078;BME280;26823;42.662;23.352;2023-08-31T00:22:18;94282.44;;;20.41;57.09
41078;BME280;26823;42.662;23.352;2023-08-31T00:24:43;94287.75;;;20.50;56.77
41078;BME280;26823;42.662;23.352;2023-08-31T00:27:09;94285.78;;;20.50;56.79
41078;BME280;26823;42.662;23.352;2023-08-31T00:29:39;94278.66;;;20.46;56.86
41078;BME280;26823;42.662;23.352;2023-08-31T00:32:05;94287.84;;;20.53;56.74
41078;BME280;26823;42.662;23.352;2023-08-31T00:34:30;94290.41;;;20.46;56.93
41078;BME280;26823;42.662;23.352;2023-08-31T00:36:56;94298.47;;;20.39;57.56
41078;BME280;26823;42.662;23.352;2023-08-31T00:39:21;94302.03;;;20.40;57.76
41078;BME280;26823;42.662;23.352;2023-08-31T00:41:47;94298.03;;;20.37;57.52
41078;BME280;26823;42.662;23.352;2023-08-31T00:44:12;94304.88;;;20.43;57.50
41078;BME280;26823;42.662;23.352;2023-08-31T00:46:40;94302.72;;;20.36;57.50
41078;BME280;26823;42.662;23.352;2023-08-31T00:49:05;94308.66;;;20.39;57.64
41078;BME280;26823;42.662;23.352;2023-08-31T00:51:31;94291.38;;;20.22;57.99
41078;BME280;26823;42.662;23.352;2023-08-31T00:53:56;94299.81;;;20.29;58.12
41078;BME280;26823;42.662;23.352;2023-08-31T00:56:24;94313.34;;;20.38;58.39
41078;BME280;26823;42.662;23.352;2023-08-31T00:58:50;94307.84;;;20.38;58.29
41078;BME280;26823;42.662;23.352;2023-08-31T01:01:37;94304.41;;;20.41;58.03
41078;BME280;26823;42.662;23.352;2023-08-31T01:04:28;94304.88;;;20.43;57.84
41078;BME280;26823;42.662;23.352;2023-08-31T01:13:14;94316.88;;;20.54;57.77
41078;BME280;26823;42.662;23.352;2023-08-31T01:15:42;94309.81;;;20.53;57.71
41078;BME280;26823;42.662;23.352;2023-08-31T01:18:14;94308.84;;;20.62;56.96
41078;BME280;26823;42.662;23.352;2023-08-31T01:20:58;94326.47;;;20.61;57.24
41078;BME280;26823;42.662;23.352;2023-08-31T01:23:30;94325.78;;;20.64;57.00
41078;BME280;26823;42.662;23.352;2023-08-31T01:25:59;94326.56;;;20.64;56.93
41078;BME280;26823;42.662;23.352;2023-08-31T01:28:24;94296.00;;;20.50;56.77
41078;BME280;26823;42.662;23.352;2023-08-31T01:30:50;94328.53;;;20.64;56.98
41078;BME280;26823;42.662;23.352;2023-08-31T01:33:18;94318.16;;;20.57;56.93
41078;BME280;26823;42.662;23.352;2023-08-31T01:35:49;94325.31;;;20.62;57.31
41078;BME280;26823;42.662;23.352;2023-08-31T01:38:21;94321.09;;;20.48;58.83
41078;BME280;26823;42.662;23.352;2023-08-31T01:40:55;94320.19;;;20.28;59.79
41078;BME280;26823;42.662;23.352;2023-08-31T01:43:23;94331.84;;;20.25;60.29
41078;BME280;26823;42.662;23.352;2023-08-31T01:45:49;94327.97;;;20.26;60.32
41078;BME280;26823;42.662;23.352;2023-08-31T01:48:15;94319.03;;;20.29;60.87
41078;BME280;26823;42.662;23.352;2023-08-31T01:50:41;94323.91;;;20.36;60.43
41078;BME280;26823;42.662;23.352;2023-08-31T01:53:06;94323.09;;;20.35;60.83
41078;BME280;26823;42.662;23.352;2023-08-31T01:55:32;94312.81;;;20.32;60.95
41078;BME280;26823;42.662;23.352;2023-08-31T01:57:58;94313.09;;;20.27;60.89
41078;BME280;26823;42.662;23.352;2023-08-31T02:00:25;94326.81;;;20.27;61.55
41078;BME280;26823;42.662;23.352;2023-08-31T02:02:50;94320.34;;;20.19;61.59
41078;BME280;26823;42.662;23.352;2023-08-31T02:05:15;94336.97;;;20.27;61.79
41078;BME280;26823;42.662;23.352;2023-08-31T02:07:41;94332.91;;;20.20;61.98
41078;BME280;26823;42.662;23.352;2023-08-31T02:10:06;94337.50;;;20.16;62.41
41078;BME280;26823;42.662;23.352;2023-08-31T02:12:33;94342.56;;;20.14;62.49
41078;BME280;26823;42.662;23.352;2023-08-31T02:14:58;94352.72;;;20.14;62.93
41078;BME280;26823;42.662;23.352;2023-08-31T02:17:24;94343.16;;;20.08;62.90
41078;BME280;26823;42.662;23.352;2023-08-31T02:19:50;94352.44;;;20.03;63.14
41078;BME280;26823;42.662;23.352;2023-08-31T02:22:16;94348.84;;;19.86;63.73
41078;BME280;26823;42.662;23.352;2023-08-31T02:24:41;94349.22;;;19.72;64.47
41078;BME280;26823;42.662;23.352;2023-08-31T02:27:06;94340.47;;;19.54;64.86
41078;BME280;26823;42.662;23.352;2023-08-31T02:29:32;94344.38;;;19.53;65.09
41078;BME280;26823;42.662;23.352;2023-08-31T02:31:57;94336.28;;;19.45;65.35
41078;BME280;26823;42.662;23.352;2023-08-31T02:34:23;94331.03;;;19.39;65.48
41078;BME280;26823;42.662;23.352;2023-08-31T02:36:48;94332.97;;;19.39;65.55
41078;BME280;26823;42.662;23.352;2023-08-31T02:39:14;94330.94;;;19.36;65.58
41078;BME280;26823;42.662;23.352;2023-08-31T02:41:40;94334.09;;;19.38;65.58
41078;BME280;26823;42.662;23.352;2023-08-31T02:44:06;94343.69;;;19.44;65.42
41078;BME280;26823;42.662;23.352;2023-08-31T02:46:31;94344.03;;;19.43;65.23
41078;BME280;26823;42.662;23.352;2023-08-31T02:48:57;94351.38;;;19.38;65.16
41078;BME280;26823;42.662;23.352;2023-08-31T02:51:22;94341.91;;;19.36;65.27
41078;BME280;26823;42.662;23.352;2023-08-31T02:53:47;94339.94;;;19.36;65.41
41078;BME280;26823;42.662;23.352;2023-08-31T02:56:13;94344.03;;;19.43;65.90
41078;BME280;26823;42.662;23.352;2023-08-31T02:58:39;94355.38;;;19.41;66.08
41078;BME280;26823;42.662;23.352;2023-08-31T03:01:12;94365.97;;;19.43;66.03
41078;BME280;26823;42.662;23.352;2023-08-31T03:03:38;94365.50;;;19.40;66.46
41078;BME280;26823;42.662;23.352;2023-08-31T03:06:06;94375.81;;;19.44;66.37
41078;BME280;26823;42.662;23.352;2023-08-31T03:08:32;94366.81;;;19.31;66.46
41078;BME280;26823;42.662;23.352;2023-08-31T03:10:58;94378.22;;;19.33;66.03
41078;BME280;26823;42.662;23.352;2023-08-31T03:13:24;94379.59;;;19.27;66.68
41078;BME280;26823;42.662;23.352;2023-08-31T03:15:49;94367.72;;;19.22;66.97
41078;BME280;26823;42.662;23.352;2023-08-31T03:18:15;94366.16;;;19.09;67.24
41078;BME280;26823;42.662;23.352;2023-08-31T03:20:40;94367.06;;;19.01;67.70
41078;BME280;26823;42.662;23.352;2023-08-31T03:23:06;94377.00;;;18.93;68.20
41078;BME280;26823;42.662;23.352;2023-08-31T03:25:31;94364.50;;;18.83;68.50
41078;BME280;26823;42.662;23.352;2023-08-31T03:27:56;94364.19;;;18.85;68.60
41078;BME280;26823;42.662;23.352;2023-08-31T03:30:22;94373.78;;;18.91;68.57
41078;BME280;26823;42.662;23.352;2023-08-31T03:32:54;94379.84;;;18.97;68.94
41078;BME280;26823;42.662;23.352;2023-08-31T03:35:19;94373.91;;;18.95;68.88
41078;BME280;26823;42.662;23.352;2023-08-31T03:37:49;94373.78;;;18.91;69.14
41078;BME280;26823;42.662;23.352;2023-08-31T03:40:14;94380.25;;;18.74;69.08
41078;BME280;26823;42.662;23.352;2023-08-31T03:42:40;94377.81;;;18.48;69.69
41078;BME280;26823;42.662;23.352;2023-08-31T03:45:05;94384.53;;;18.25;70.59
41078;BME280;26823;42.662;23.352;2023-08-31T03:47:31;94386.13;;;18.39;70.61
41078;BME280;26823;42.662;23.352;2023-08-31T03:49:57;94378.94;;;18.34;70.01
41078;BME280;26823;42.662;23.352;2023-08-31T03:52:22;94394.94;;;18.45;70.52
41078;BME280;26823;42.662;23.352;2023-08-31T03:54:48;94401.78;;;18.38;70.88
41078;BME280;26823;42.662;23.352;2023-08-31T03:57:14;94399.28;;;18.12;71.82
41078;BME280;26823;42.662;23.352;2023-08-31T03:59:39;94408.63;;;18.11;72.33
41078;BME280;26823;42.662;23.352;2023-08-31T04:02:04;94406.72;;;18.12;71.83
41078;BME280;26823;42.662;23.352;2023-08-31T04:04:30;94409.25;;;17.96;72.50
41078;BME280;26823;42.662;23.352;2023-08-31T04:06:55;94398.50;;;17.69;73.46
41078;BME280;26823;42.662;23.352;2023-08-31T04:09:21;94411.25;;;17.65;73.73
41078;BME280;26823;42.662;23.352;2023-08-31T04:11:47;94429.25;;;17.66;74.04
41078;BME280;26823;42.662;23.352;2023-08-31T04:14:12;94435.00;;;17.73;74.38
41078;BME280;26823;42.662;23.352;2023-08-31T04:16:37;94436.19;;;17.85;74.03
41078;BME280;26823;42.662;23.352;2023-08-31T04:19:03;94432.09;;;17.91;73.81
41078;BME280;26823;42.662;23.352;2023-08-31T04:21:29;94428.53;;;17.99;73.38
41078;BME280;26823;42.662;23.352;2023-08-31T04:23:54;94442.34;;;18.03;73.18
41078;BME280;26823;42.662;23.352;2023-08-31T04:26:19;94449.31;;;18.00;73.37
41078;BME280;26823;42.662;23.352;2023-08-31T04:28:45;94450.22;;;18.04;73.44
41078;BME280;26823;42.662;23.352;2023-08-31T04:31:11;94448.47;;;18.00;73.91
41078;BME280;26823;42.662;23.352;2023-08-31T04:33:38;94456.88;;;18.16;73.62
41078;BME280;26823;42.662;23.352;2023-08-31T04:36:05;94451.69;;;18.23;73.19
41078;BME280;26823;42.662;23.352;2023-08-31T04:38:37;94404.25;;;17.98;71.98
41078;BME280;26823;42.662;23.352;2023-08-31T04:41:03;94444.06;;;18.29;72.07
41078;BME280;26823;42.662;23.352;2023-08-31T04:43:28;94455.13;;;18.32;72.19
41078;BME280;26823;42.662;23.352;2023-08-31T04:45:55;94453.88;;;18.30;72.63
41078;BME280;26823;42.662;23.352;2023-08-31T04:48:20;94458.56;;;18.29;72.69
41078;BME280;26823;42.662;23.352;2023-08-31T04:50:46;94450.34;;;18.29;72.36
41078;BME280;26823;42.662;23.352;2023-08-31T04:53:12;94462.25;;;18.46;72.12
41078;BME280;26823;42.662;23.352;2023-08-31T04:55:37;94455.31;;;18.48;71.97
41078;BME280;26823;42.662;23.352;2023-08-31T04:58:03;94457.84;;;18.53;72.20
41078;BME280;26823;42.662;23.352;2023-08-31T05:00:29;94457.75;;;18.62;72.45
41078;BME280;26823;42.662;23.352;2023-08-31T05:02:55;94468.25;;;18.72;72.21
41078;BME280;26823;42.662;23.352;2023-08-31T05:05:27;94462.78;;;18.72;71.74
41078;BME280;26823;42.662;23.352;2023-08-31T05:07:53;94461.53;;;18.70;70.19
41078;BME280;26823;42.662;23.352;2023-08-31T05:10:18;94470.09;;;18.81;70.16
41078;BME280;26823;42.662;23.352;2023-08-31T05:12:43;94458.47;;;18.84;70.32
41078;BME280;26823;42.662;23.352;2023-08-31T05:15:09;94473.03;;;19.09;69.14
41078;BME280;26823;42.662;23.352;2023-08-31T05:17:34;94467.88;;;19.20;69.51
41078;BME280;26823;42.662;23.352;2023-08-31T05:20:00;94465.72;;;19.38;69.33
41078;BME280;26823;42.662;23.352;2023-08-31T05:22:25;94473.28;;;19.53;68.66
41078;BME280;26823;42.662;23.352;2023-08-31T05:24:51;94479.97;;;19.81;68.19
41078;BME280;26823;42.662;23.352;2023-08-31T05:27:16;94479.50;;;19.91;67.49
41078;BME280;26823;42.662;23.352;2023-08-31T05:29:41;94479.59;;;20.07;66.51
41078;BME280;26823;42.662;23.352;2023-08-31T05:32:07;94469.88;;;20.10;66.18
41078;BME280;26823;42.662;23.352;2023-08-31T05:34:32;94478.97;;;20.26;65.76
41078;BME280;26823;42.662;23.352;2023-08-31T05:37:03;94465.69;;;20.28;65.38
41078;BME280;26823;42.662;23.352;2023-08-31T05:39:30;94472.88;;;20.33;65.10
41078;BME280;26823;42.662;23.352;2023-08-31T05:41:55;94471.84;;;20.37;64.87
41078;BME280;26823;42.662;23.352;2023-08-31T05:44:21;94463.34;;;20.43;64.66
41078;BME280;26823;42.662;23.352;2023-08-31T05:46:47;94436.38;;;20.32;64.30
41078;BME280;26823;42.662;23.352;2023-08-31T05:49:12;94448.81;;;20.42;63.74
41078;BME280;26823;42.662;23.352;2023-08-31T05:51:37;94474.75;;;20.57;62.84
41078;BME280;26823;42.662;23.352;2023-08-31T05:54:03;94479.25;;;20.65;61.10
41078;BME280;26823;42.662;23.352;2023-08-31T05:56:28;94473.06;;;20.68;59.66
41078;BME280;26823;42.662;23.352;2023-08-31T05:58:54;94447.34;;;20.61;59.48
41078;BME280;26823;42.662;23.352;2023-08-31T06:01:20;94463.09;;;20.76;59.53
41078;BME280;26823;42.662;23.352;2023-08-31T06:03:47;94462.59;;;20.87;59.10
41078;BME280;26823;42.662;23.352;2023-08-31T06:06:13;94478.19;;;20.98;58.91
41078;BME280;26823;42.662;23.352;2023-08-31T06:08:38;94485.19;;;20.96;58.67
41078;BME280;26823;42.662;23.352;2023-08-31T06:11:04;94490.34;;;20.97;58.26
41078;BME280;26823;42.662;23.352;2023-08-31T06:13:29;94487.78;;;21.05;58.28
41078;BME280;26823;42.662;23.352;2023-08-31T06:15:54;94488.38;;;21.14;57.50
41078;BME280;26823;42.662;23.352;2023-08-31T06:18:21;94490.97;;;21.23;58.41
41078;BME280;26823;42.662;23.352;2023-08-31T06:20:49;94499.31;;;21.26;59.80
41078;BME280;26823;42.662;23.352;2023-08-31T06:23:14;94489.47;;;21.25;60.07
41078;BME280;26823;42.662;23.352;2023-08-31T06:25:39;94497.13;;;21.32;59.99
41078;BME280;26823;42.662;23.352;2023-08-31T06:28:05;94499.50;;;21.33;60.08
41078;BME280;26823;42.662;23.352;2023-08-31T06:30:34;94502.59;;;21.48;60.04
41078;BME280;26823;42.662;23.352;2023-08-31T06:32:59;94508.63;;;21.54;59.87
41078;BME280;26823;42.662;23.352;2023-08-31T06:35:24;94499.13;;;21.35;60.28
41078;BME280;26823;42.662;23.352;2023-08-31T06:37:50;94521.25;;;21.39;58.60
41078;BME280;26823;42.662;23.352;2023-08-31T06:40:15;94495.22;;;21.20;58.74
41078;BME280;26823;42.662;23.352;2023-08-31T06:42:41;94509.94;;;21.28;59.04
41078;BME280;26823;42.662;23.352;2023-08-31T06:45:07;94512.72;;;21.44;59.26
41078;BME280;26823;42.662;23.352;2023-08-31T06:47:33;94518.81;;;21.53;57.41
41078;BME280;26823;42.662;23.352;2023-08-31T06:49:59;94520.28;;;21.63;57.15
41078;BME280;26823;42.662;23.352;2023-08-31T06:52:27;94510.22;;;21.71;57.33
41078;BME280;26823;42.662;23.352;2023-08-31T06:54:53;94513.16;;;21.78;56.56
41078;BME280;26823;42.662;23.352;2023-08-31T06:57:21;94535.06;;;21.90;56.85
41078;BME280;26823;42.662;23.352;2023-08-31T06:59:47;94530.00;;;21.92;56.40
41078;BME280;26823;42.662;23.352;2023-08-31T07:02:12;94528.94;;;21.97;55.91
41078;BME280;26823;42.662;23.352;2023-08-31T07:04:38;94514.22;;;21.89;56.07
41078;BME280;26823;42.662;23.352;2023-08-31T07:07:03;94526.84;;;22.10;56.03
41078;BME280;26823;42.662;23.352;2023-08-31T07:09:30;94528.53;;;22.14;54.23
41078;BME280;26823;42.662;23.352;2023-08-31T07:11:55;94522.81;;;22.23;54.42
41078;BME280;26823;42.662;23.352;2023-08-31T07:14:21;94528.28;;;22.39;53.50
41078;BME280;26823;42.662;23.352;2023-08-31T07:16:46;94511.47;;;22.44;52.77
41078;BME280;26823;42.662;23.352;2023-08-31T07:19:12;94524.81;;;22.62;52.12
41078;BME280;26823;42.662;23.352;2023-08-31T07:21:37;94533.72;;;22.75;52.64
41078;BME280;26823;42.662;23.352;2023-08-31T07:24:03;94523.59;;;22.79;51.64
41078;BME280;26823;42.662;23.352;2023-08-31T07:26:29;94525.59;;;23.02;51.49
41078;BME280;26823;42.662;23.352;2023-08-31T07:28:55;94534.50;;;23.15;49.46
41078;BME280;26823;42.662;23.352;2023-08-31T07:31:20;94526.50;;;23.29;49.52
41078;BME280;26823;42.662;23.352;2023-08-31T07:33:46;94509.03;;;23.21;49.86
41078;BME280;26823;42.662;23.352;2023-08-31T07:36:11;94531.53;;;23.47;49.35
41078;BME280;26823;42.662;23.352;2023-08-31T07:38:36;94518.53;;;23.47;48.89
41078;BME280;26823;42.662;23.352;2023-08-31T07:41:02;94531.28;;;23.55;48.51
41078;BME280;26823;42.662;23.352;2023-08-31T07:43:29;94523.53;;;23.65;48.42
41078;BME280;26823;42.662;23.352;2023-08-31T07:45:55;94524.56;;;23.80;46.98
41078;BME280;26823;42.662;23.352;2023-08-31T07:48:20;94529.84;;;23.88;46.47
41078;BME280;26823;42.662;23.352;2023-08-31T07:50:45;94513.34;;;23.92;45.98
41078;BME280;26823;42.662;23.352;2023-08-31T07:53:11;94517.47;;;24.05;46.21
41078;BME280;26823;42.662;23.352;2023-08-31T07:55:37;94530.06;;;24.30;46.28
41078;BME280;26823;42.662;23.352;2023-08-31T07:58:02;94528.19;;;24.37;45.73
41078;BME280;26823;42.662;23.352;2023-08-31T08:00:27;94542.16;;;24.48;45.94
41078;BME280;26823;42.662;23.352;2023-08-31T08:02:53;94535.44;;;24.49;46.19
41078;BME280;26823;42.662;23.352;2023-08-31T08:05:18;94528.47;;;24.59;46.35
41078;BME280;26823;42.662;23.352;2023-08-31T08:07:44;94539.72;;;24.73;45.60
41078;BME280;26823;42.662;23.352;2023-08-31T08:10:11;94535.22;;;24.92;44.43
41078;BME280;26823;42.662;23.352;2023-08-31T08:12:43;94551.56;;;25.04;44.22
41078;BME280;26823;42.662;23.352;2023-08-31T08:15:09;94540.97;;;25.14;42.43
41078;BME280;26823;42.662;23.352;2023-08-31T08:17:35;94546.16;;;25.19;42.86
41078;BME280;26823;42.662;23.352;2023-08-31T08:20:01;94550.84;;;25.11;40.98
41078;BME280;26823;42.662;23.352;2023-08-31T08:22:26;94543.75;;;25.14;41.92
41078;BME280;26823;42.662;23.352;2023-08-31T08:24:52;94539.28;;;25.05;39.59
41078;BME280;26823;42.662;23.352;2023-08-31T08:27:17;94536.66;;;25.16;41.30
41078;BME280;26823;42.662;23.352;2023-08-31T08:29:44;94548.63;;;25.28;40.12
41078;BME280;26823;42.662;23.352;2023-08-31T08:32:10;94537.91;;;25.22;38.71
41078;BME280;26823;42.662;23.352;2023-08-31T08:34:35;94531.28;;;25.34;38.02
41078;BME280;26823;42.662;23.352;2023-08-31T08:37:01;94530.19;;;25.39;37.21
41078;BME280;26823;42.662;23.352;2023-08-31T08:39:26;94536.22;;;25.52;37.98
41078;BME280;26823;42.662;23.352;2023-08-31T08:41:54;94541.03;;;25.59;37.28
41078;BME280;26823;42.662;23.352;2023-08-31T08:44:24;94547.91;;;25.76;38.10
41078;BME280;26823;42.662;23.352;2023-08-31T08:46:51;94534.88;;;25.80;37.34
41078;BME280;26823;42.662;23.352;2023-08-31T08:49:18;94536.56;;;25.92;37.00
41078;BME280;26823;42.662;23.352;2023-08-31T08:51:44;94541.00;;;26.03;36.65
41078;BME280;26823;42.662;23.352;2023-08-31T08:54:12;94538.28;;;26.11;36.14
41078;BME280;26823;42.662;23.352;2023-08-31T08:56:38;94534.00;;;26.20;36.06
41078;BME280;26823;42.662;23.352;2023-08-31T08:59:03;94524.44;;;26.11;34.84
41078;BME280;26823;42.662;23.352;2023-08-31T09:01:30;94527.31;;;26.25;35.71
41078;BME280;26823;42.662;23.352;2023-08-31T09:03:56;94536.88;;;26.35;33.98
41078;BME280;26823;42.662;23.352;2023-08-31T09:06:22;94538.50;;;26.43;33.10
41078;BME280;26823;42.662;23.352;2023-08-31T09:08:54;94544.84;;;26.44;32.71
41078;BME280;26823;42.662;23.352;2023-08-31T09:11:21;94534.59;;;26.51;32.49
41078;BME280;26823;42.662;23.352;2023-08-31T09:13:48;94544.50;;;26.49;32.69
41078;BME280;26823;42.662;23.352;2023-08-31T09:16:24;94537.38;;;26.51;32.65
41078;BME280;26823;42.662;23.352;2023-08-31T09:18:50;94534.56;;;26.44;32.57
41078;BME280;26823;42.662;23.352;2023-08-31T09:21:16;94544.88;;;26.51;32.54
41078;BME280;26823;42.662;23.352;2023-08-31T09:23:41;94521.91;;;26.50;32.65
41078;BME280;26823;42.662;23.352;2023-08-31T09:26:06;94536.16;;;26.52;32.61
41078;BME280;26823;42.662;23.352;2023-08-31T09:28:32;94540.94;;;26.56;32.17
41078;BME280;26823;42.662;23.352;2023-08-31T09:31:08;94540.94;;;26.56;32.33
41078;BME280;26823;42.662;23.352;2023-08-31T09:33:34;94532.59;;;26.48;33.02
41078;BME280;26823;42.662;23.352;2023-08-31T09:36:00;94531.81;;;26.48;33.08
41078;BME280;26823;42.662;23.352;2023-08-31T09:38:26;94504.00;;;26.37;33.12
41078;BME280;26823;42.662;23.352;2023-08-31T09:41:03;94537.81;;;26.61;33.26
41078;BME280;26823;42.662;23.352;2023-08-31T09:43:29;94521.56;;;26.66;33.52
41078;BME280;26823;42.662;23.352;2023-08-31T09:45:55;94509.28;;;26.57;33.53
41078;BME280;26823;42.662;23.352;2023-08-31T09:48:22;94519.59;;;26.67;33.54
41078;BME280;26823;42.662;23.352;2023-08-31T09:50:48;94516.44;;;26.68;33.47
41078;BME280;26823;42.662;23.352;2023-08-31T09:53:16;94523.94;;;26.61;33.30
41078;BME280;26823;42.662;23.352;2023-08-31T09:55:43;94508.91;;;26.65;34.18
41078;BME280;26823;42.662;23.352;2023-08-31T09:58:09;94518.00;;;26.62;33.57
41078;BME280;26823;42.662;23.352;2023-08-31T10:00:36;94491.69;;;26.31;33.78
41078;BME280;26823;42.662;23.352;2023-08-31T10:03:03;94525.88;;;26.53;33.36
41078;BME280;26823;42.662;23.352;2023-08-31T10:05:29;94520.00;;;26.62;33.12
41078;BME280;26823;42.662;23.352;2023-08-31T10:07:57;94526.31;;;26.62;32.95
41078;BME280;26823;42.662;23.352;2023-08-31T10:10:23;94508.47;;;26.60;32.83
41078;BME280;26823;42.662;23.352;2023-08-31T10:12:49;94524.28;;;26.52;32.50
41078;BME280;26823;42.662;23.352;2023-08-31T10:15:17;94525.44;;;26.40;33.13
41078;BME280;26823;42.662;23.352;2023-08-31T10:17:43;94525.84;;;26.46;33.30
41078;BME280;26823;42.662;23.352;2023-08-31T10:20:11;94516.38;;;26.50;32.58
41078;BME280;26823;42.662;23.352;2023-08-31T10:22:37;94519.53;;;26.52;32.75
41078;BME280;26823;42.662;23.352;2023-08-31T10:25:04;94525.44;;;26.44;32.16
41078;BME280;26823;42.662;23.352;2023-08-31T10:27:38;94528.22;;;26.44;32.33
41078;BME280;26823;42.662;23.352;2023-08-31T10:36:01;94526.59;;;26.39;32.46
41078;BME280;26823;42.662;23.352;2023-08-31T10:38:30;94526.16;;;26.33;31.59
41078;BME280;26823;42.662;23.352;2023-08-31T10:43:26;94524.91;;;26.20;32.55
41078;BME280;26823;42.662;23.352;2023-08-31T10:45:51;94524.84;;;26.09;32.61
41078;BME280;26823;42.662;23.352;2023-08-31T10:48:17;94524.03;;;26.05;32.97
41078;BME280;26823;42.662;23.352;2023-08-31T10:50:45;94529.56;;;26.05;32.44
41078;BME280;26823;42.662;23.352;2023-08-31T10:53:12;94527.94;;;26.04;32.59
41078;BME280;26823;42.662;23.352;2023-08-31T10:55:51;94538.22;;;26.00;33.05
41078;BME280;26823;42.662;23.352;2023-08-31T10:58:17;94529.91;;;26.00;32.59
41078;BME280;26823;42.662;23.352;2023-08-31T11:00:52;94522.41;;;26.04;32.57
41078;BME280;26823;42.662;23.352;2023-08-31T11:03:24;94538.34;;;26.18;32.52
41078;BME280;26823;42.662;23.352;2023-08-31T11:05:50;94534.47;;;26.26;32.41
41078;BME280;26823;42.662;23.352;2023-08-31T11:08:16;94531.72;;;26.33;32.38
41078;BME280;26823;42.662;23.352;2023-08-31T11:10:45;94529.75;;;26.34;32.51
41078;BME280;26823;42.662;23.352;2023-08-31T11:13:18;94533.78;;;26.44;32.95
41078;BME280;26823;42.662;23.352;2023-08-31T11:15:46;94526.19;;;26.37;32.20
41078;BME280;26823;42.662;23.352;2023-08-31T11:18:12;94535.78;;;26.50;32.48
41078;BME280;26823;42.662;23.352;2023-08-31T11:20:37;94538.94;;;26.52;31.99
41078;BME280;26823;42.662;23.352;2023-08-31T11:23:03;94537.75;;;26.53;32.01
41078;BME280;26823;42.662;23.352;2023-08-31T11:25:31;94528.66;;;26.53;31.75
41078;BME280;26823;42.662;23.352;2023-08-31T11:28:00;94523.94;;;26.61;31.99
41078;BME280;26823;42.662;23.352;2023-08-31T11:30:27;94529.53;;;26.68;32.39
41078;BME280;26823;42.662;23.352;2023-08-31T11:32:53;94534.75;;;26.77;32.18
41078;BME280;26823;42.662;23.352;2023-08-31T11:35:22;94532.34;;;26.75;31.88
41078;BME280;26823;42.662;23.352;2023-08-31T11:37:51;94526.41;;;26.77;32.19
41078;BME280;26823;42.662;23.352;2023-08-31T11:40:17;94533.09;;;26.72;32.11
41078;BME280;26823;42.662;23.352;2023-08-31T11:42:44;94529.56;;;26.75;32.44
41078;BME280;26823;42.662;23.352;2023-08-31T11:45:11;94537.88;;;26.75;32.57
41078;BME280;26823;42.662;23.352;2023-08-31T11:47:43;94522.78;;;26.69;32.30
41078;BME280;26823;42.662;23.352;2023-08-31T11:50:11;94514.50;;;26.76;32.40
41078;BME280;26823;42.662;23.352;2023-08-31T11:52:37;94535.59;;;26.88;32.13
41078;BME280;26823;42.662;23.352;2023-08-31T11:55:10;94528.47;;;26.91;32.60
41078;BME280;26823;42.662;23.352;2023-08-31T11:57:35;94512.59;;;26.91;32.76
41078;BME280;26823;42.662;23.352;2023-08-31T12:00:02;94532.03;;;26.98;33.65
41078;BME280;26823;42.662;23.352;2023-08-31T12:02:35;94521.34;;;27.08;33.69
41078;BME280;26823;42.662;23.352;2023-08-31T12:05:01;94518.63;;;27.15;33.76
41078;BME280;26823;42.662;23.352;2023-08-31T12:07:26;94517.81;;;27.18;33.62
41078;BME280;26823;42.662;23.352;2023-08-31T12:09:51;94520.63;;;27.25;33.02
41078;BME280;26823;42.662;23.352;2023-08-31T12:12:20;94526.50;;;27.09;33.58
41078;BME280;26823;42.662;23.352;2023-08-31T12:14:45;94505.50;;;27.05;33.56
41078;BME280;26823;42.662;23.352;2023-08-31T12:17:11;94529.66;;;27.04;33.39
41078;BME280;26823;42.662;23.352;2023-08-31T12:19:38;94522.13;;;27.08;33.47
41078;BME280;26823;42.662;23.352;2023-08-31T12:22:04;94511.81;;;26.98;33.58
41078;BME280;26823;42.662;23.352;2023-08-31T12:24:37;94499.13;;;26.93;34.04
41078;BME280;26823;42.662;23.352;2023-08-31T12:27:02;94503.13;;;26.99;33.61
41078;BME280;26823;42.662;23.352;2023-08-31T12:29:28;94501.94;;;27.08;33.33
41078;BME280;26823;42.662;23.352;2023-08-31T12:31:53;94488.09;;;27.15;33.10
41078;BME280;26823;42.662;23.352;2023-08-31T12:34:18;94508.72;;;27.32;32.64
41078;BME280;26823;42.662;23.352;2023-08-31T12:36:44;94502.41;;;27.46;32.49
41078;BME280;26823;42.662;23.352;2023-08-31T12:39:09;94506.41;;;27.52;33.06
41078;BME280;26823;42.662;23.352;2023-08-31T12:41:36;94521.06;;;27.45;33.01
41078;BME280;26823;42.662;23.352;2023-08-31T12:44:05;94516.25;;;27.31;33.52
41078;BME280;26823;42.662;23.352;2023-08-31T12:46:31;94503.16;;;27.17;33.85
41078;BME280;26823;42.662;23.352;2023-08-31T12:48:56;94511.06;;;27.15;33.64
41078;BME280;26823;42.662;23.352;2023-08-31T12:51:22;94505.50;;;27.08;33.24
41078;BME280;26823;42.662;23.352;2023-08-31T12:53:48;94505.06;;;26.84;34.09
41078;BME280;26823;42.662;23.352;2023-08-31T12:56:13;94505.81;;;26.81;34.33
41078;BME280;26823;42.662;23.352;2023-08-31T12:58:40;94503.81;;;26.75;33.95
41078;BME280;26823;42.662;23.352;2023-08-31T13:01:05;94507.72;;;26.66;34.17